createdAt,value
2023-04-08T00:00:16.718Z,61.28
2023-04-08T00:02:46.686Z,61.42
2023-04-08T00:05:14.924Z,61.56
2023-04-08T00:07:44.580Z,61.63
2023-04-08T00:10:12.943Z,61.82
2023-04-08T00:12:41.470Z,61.90
2023-04-08T00:15:10.325Z,61.92
2023-04-08T00:17:39.643Z,62.06
2023-04-08T00:20:08.134Z,62.16
2023-04-08T00:22:36.806Z,62.21
2023-04-08T00:25:09.681Z,62.44
2023-04-08T00:27:39.243Z,62.69
2023-04-08T00:30:08.045Z,62.95
2023-04-08T00:32:36.604Z,63.25
2023-04-08T00:35:05.316Z,63.44
2023-04-08T00:37:33.581Z,63.73
2023-04-08T00:40:04.916Z,64.14
2023-04-08T00:42:33.754Z,64.55
2023-04-08T00:45:01.912Z,64.77
2023-04-08T00:47:30.559Z,64.94
2023-04-08T00:49:58.809Z,65.09
2023-04-08T00:52:26.875Z,65.08
2023-04-08T00:54:57.085Z,65.10
2023-04-08T00:57:25.542Z,65.22
2023-04-08T01:00:00.992Z,65.29
2023-04-08T01:02:53.893Z,65.41
2023-04-08T01:05:51.796Z,65.55
2023-04-08T01:08:19.889Z,65.71
2023-04-08T01:10:49.014Z,65.91
2023-04-08T01:13:18.089Z,66.03
2023-04-08T01:15:46.330Z,66.25
2023-04-08T01:18:15.948Z,66.41
2023-04-08T01:20:44.292Z,66.54
2023-04-08T01:23:35.452Z,66.65
2023-04-08T01:26:03.782Z,66.76
2023-04-08T01:28:32.188Z,66.91
2023-04-08T01:31:01.365Z,66.99
2023-04-08T01:33:29.881Z,67.08
2023-04-08T01:36:02.539Z,67.20
2023-04-08T01:38:31.687Z,67.37
2023-04-08T01:41:00.826Z,67.48
2023-04-08T01:43:32.397Z,67.52
2023-04-08T01:46:00.501Z,67.56
2023-04-08T01:48:28.708Z,67.50
2023-04-08T01:50:58.226Z,67.44
2023-04-08T01:53:27.109Z,67.44
2023-04-08T01:55:58.748Z,67.42
2023-04-08T01:58:26.981Z,67.37
2023-04-08T02:00:54.962Z,67.37
2023-04-08T02:03:25.113Z,67.39
2023-04-08T02:05:53.678Z,67.38
2023-04-08T02:08:21.741Z,67.50
2023-04-08T02:10:50.502Z,67.50
2023-04-08T02:13:19.257Z,67.62
2023-04-08T02:15:52.041Z,67.65
2023-04-08T02:18:30.744Z,67.58
2023-04-08T02:21:04.374Z,67.66
2023-04-08T02:23:33.529Z,67.70
2023-04-08T02:26:01.511Z,67.75
2023-04-08T02:28:29.903Z,67.92
2023-04-08T02:30:59.143Z,67.93
2023-04-08T02:33:27.987Z,68.00
2023-04-08T02:35:56.788Z,68.08
2023-04-08T02:38:32.542Z,68.12
2023-04-08T02:41:00.839Z,68.22
2023-04-08T02:43:32.645Z,68.23
2023-04-08T02:46:04.368Z,68.33
2023-04-08T02:48:33.109Z,68.31
2023-04-08T02:51:01.208Z,68.46
2023-04-08T02:53:29.811Z,68.60
2023-04-08T02:55:58.486Z,68.71
2023-04-08T02:58:26.536Z,68.85
2023-04-08T03:00:55.862Z,68.88
2023-04-08T03:03:28.635Z,68.99
2023-04-08T03:05:57.560Z,69.02
2023-04-08T03:08:25.971Z,69.12
2023-04-08T03:10:54.224Z,69.16
2023-04-08T03:13:22.571Z,69.18
2023-04-08T03:15:50.677Z,69.27
2023-04-08T03:18:18.967Z,69.34
2023-04-08T03:20:47.682Z,69.42
2023-04-08T03:23:16.562Z,69.62
2023-04-08T03:25:45.923Z,69.73
2023-04-08T03:28:13.968Z,69.86
2023-04-08T03:30:44.014Z,69.98
2023-04-08T03:33:12.857Z,70.09
2023-04-08T03:35:41.101Z,70.28
2023-04-08T03:38:09.938Z,70.41
2023-04-08T03:40:38.119Z,70.51
2023-04-08T03:43:08.877Z,70.60
2023-04-08T03:45:37.037Z,70.62
2023-04-08T03:48:06.208Z,70.68
2023-04-08T03:50:34.936Z,70.78
2023-04-08T03:53:03.872Z,70.87
2023-04-08T03:55:32.472Z,70.95
2023-04-08T03:58:00.851Z,70.98
2023-04-08T04:00:29.025Z,70.96
2023-04-08T04:02:58.139Z,71.02
2023-04-08T04:05:29.377Z,71.17
2023-04-08T04:07:58.611Z,71.31
2023-04-08T04:10:26.881Z,71.40
2023-04-08T04:12:55.275Z,71.46
2023-04-08T04:15:28.491Z,71.50
2023-04-08T04:17:57.335Z,71.54
2023-04-08T04:20:26.221Z,71.60
2023-04-08T04:22:56.054Z,71.64
2023-04-08T04:25:24.691Z,71.70
2023-04-08T04:27:56.276Z,71.62
2023-04-08T04:30:32.104Z,71.50
2023-04-08T04:33:06.519Z,71.48
2023-04-08T04:35:36.325Z,71.40
2023-04-08T04:38:05.877Z,71.47
2023-04-08T04:40:35.462Z,71.55
2023-04-08T04:43:03.711Z,71.58
2023-04-08T04:45:32.960Z,71.78
2023-04-08T04:48:01.242Z,71.90
2023-04-08T04:50:30.608Z,71.93
2023-04-08T04:53:01.987Z,71.85
2023-04-08T04:55:32.555Z,71.84
2023-04-08T04:58:00.630Z,71.81
2023-04-08T05:00:28.949Z,71.92
2023-04-08T05:02:58.096Z,72.06
2023-04-08T05:05:26.716Z,72.20
2023-04-08T05:07:56.349Z,72.26
2023-04-08T05:10:24.705Z,72.30
2023-04-08T05:12:58.605Z,72.33
2023-04-08T05:15:27.610Z,72.30
2023-04-08T05:17:57.011Z,72.26
2023-04-08T05:20:25.342Z,72.33
2023-04-08T05:22:56.356Z,72.39
2023-04-08T05:25:24.651Z,72.44
2023-04-08T05:27:53.063Z,72.41
2023-04-08T05:30:21.214Z,72.24
2023-04-08T05:32:51.071Z,72.40
2023-04-08T05:35:19.207Z,72.49
2023-04-08T05:37:48.940Z,72.60
2023-04-08T05:40:17.050Z,72.40
2023-04-08T05:42:46.764Z,72.26
2023-04-08T05:45:19.110Z,72.05
2023-04-08T05:47:48.372Z,71.92
2023-04-08T05:50:16.704Z,71.62
2023-04-08T05:52:45.554Z,71.37
2023-04-08T05:55:14.196Z,70.92
2023-04-08T05:57:43.368Z,70.77
2023-04-08T06:00:12.058Z,70.41
2023-04-08T06:02:41.850Z,69.66
2023-04-08T06:05:11.461Z,68.70
2023-04-08T06:07:39.922Z,67.31
2023-04-08T06:10:08.765Z,66.06
2023-04-08T06:12:39.655Z,64.73
2023-04-08T06:15:08.627Z,63.88
2023-04-08T06:17:37.687Z,63.17
2023-04-08T06:20:06.861Z,62.74
2023-04-08T06:22:36.568Z,62.32
2023-04-08T06:25:05.462Z,62.32
2023-04-08T06:27:33.803Z,62.42
2023-04-08T06:30:02.149Z,62.47
2023-04-08T06:32:31.937Z,61.99
2023-04-08T06:35:00.213Z,61.79
2023-04-08T06:37:29.729Z,61.16
2023-04-08T06:39:57.845Z,60.75
2023-04-08T06:42:25.935Z,60.90
2023-04-08T06:45:10.814Z,61.20
2023-04-08T06:47:40.490Z,61.44
2023-04-08T06:50:09.107Z,61.45
2023-04-08T06:52:37.616Z,61.53
2023-04-08T06:55:06.446Z,61.52
2023-04-08T06:57:34.633Z,61.62
2023-04-08T07:00:04.493Z,62.03
2023-04-08T07:02:34.381Z,62.57
2023-04-08T07:05:03.504Z,63.22
2023-04-08T07:07:32.488Z,63.19
2023-04-08T07:10:10.360Z,62.07
2023-04-08T07:12:39.085Z,61.09
2023-04-08T07:15:08.263Z,59.73
2023-04-08T07:17:38.069Z,57.22
2023-04-08T07:20:07.465Z,54.40
2023-04-08T07:22:43.021Z,52.83
2023-04-08T07:25:11.521Z,52.02
2023-04-08T07:27:39.769Z,51.30
2023-04-08T07:30:08.754Z,51.08
2023-04-08T07:32:37.250Z,50.75
2023-04-08T07:35:06.012Z,50.38
2023-04-08T07:37:34.153Z,51.36
2023-04-08T07:40:02.242Z,51.87
2023-04-08T07:42:30.408Z,51.65
2023-04-08T07:44:58.783Z,51.60
2023-04-08T07:47:31.300Z,51.59
2023-04-08T07:49:59.976Z,51.70
2023-04-08T07:52:28.036Z,51.74
2023-04-08T07:54:56.433Z,52.09
2023-04-08T07:57:24.785Z,52.43
2023-04-08T07:59:53.664Z,52.52
2023-04-08T08:02:21.829Z,52.41
2023-04-08T08:04:50.031Z,52.73
2023-04-08T08:07:21.331Z,53.63
2023-04-08T08:09:49.326Z,54.39
2023-04-08T08:12:17.379Z,54.77
2023-04-08T08:14:46.140Z,55.28
2023-04-08T08:17:14.576Z,55.38
2023-04-08T08:19:43.009Z,55.46
2023-04-08T08:22:13.494Z,55.57
2023-04-08T08:24:43.414Z,55.75
2023-04-08T08:27:11.675Z,56.03
2023-04-08T08:29:40.910Z,56.02
2023-04-08T08:32:08.989Z,55.92
2023-04-08T08:34:37.108Z,55.84
2023-04-08T08:37:06.156Z,55.75
2023-04-08T08:39:34.431Z,55.37
2023-04-08T08:42:06.699Z,55.13
2023-04-08T08:44:36.120Z,54.40
2023-04-08T08:47:04.217Z,53.68
2023-04-08T08:49:32.644Z,53.40
2023-04-08T08:52:00.909Z,53.24
2023-04-08T08:54:29.557Z,53.34
2023-04-08T08:56:57.771Z,53.02
2023-04-08T08:59:26.042Z,52.49
2023-04-08T09:01:54.148Z,52.74
2023-04-08T09:04:23.068Z,52.68
2023-04-08T09:07:11.211Z,52.43
2023-04-08T09:09:51.923Z,52.15
2023-04-08T09:12:22.888Z,51.78
2023-04-08T09:14:51.294Z,51.72
2023-04-08T09:17:33.768Z,51.50
2023-04-08T09:20:13.713Z,51.20
2023-04-08T09:23:01.730Z,51.35
2023-04-08T09:25:32.181Z,51.05
2023-04-08T09:28:03.353Z,50.55
2023-04-08T09:30:32.659Z,50.10
2023-04-08T09:33:07.549Z,50.29
2023-04-08T09:35:36.758Z,50.23
2023-04-08T09:38:05.174Z,50.04
2023-04-08T09:40:35.178Z,50.14
2023-04-08T09:43:05.710Z,50.14
2023-04-08T09:45:34.483Z,50.12
2023-04-08T09:48:09.174Z,49.81
2023-04-08T09:50:43.889Z,49.04
2023-04-08T09:53:22.752Z,48.92
2023-04-08T09:55:52.463Z,49.43
2023-04-08T09:58:24.628Z,48.87
2023-04-08T10:00:53.344Z,48.16
2023-04-08T10:03:39.661Z,47.38
2023-04-08T10:06:08.925Z,46.44
2023-04-08T10:08:38.588Z,45.89
2023-04-08T10:11:06.673Z,46.20
2023-04-08T10:13:35.404Z,46.89
2023-04-08T10:16:24.767Z,46.94
2023-04-08T10:18:56.454Z,45.93
2023-04-08T10:21:39.830Z,44.85
2023-04-08T10:24:09.980Z,44.83
2023-04-08T10:26:42.460Z,44.86
2023-04-08T10:29:21.367Z,44.47
2023-04-08T10:31:52.819Z,44.12
2023-04-08T10:34:26.457Z,44.55
2023-04-08T10:36:56.930Z,44.62
2023-04-08T10:39:27.455Z,44.34
2023-04-08T10:41:56.593Z,44.20
2023-04-08T10:44:26.356Z,44.49
2023-04-08T10:46:54.919Z,44.58
2023-04-08T10:49:23.031Z,44.85
2023-04-08T10:51:56.716Z,45.04
2023-04-08T10:54:24.856Z,44.84
2023-04-08T10:56:53.729Z,44.85
2023-04-08T10:59:30.714Z,45.22
2023-04-08T11:02:00.006Z,45.56
2023-04-08T11:04:28.516Z,45.65
2023-04-08T11:06:58.665Z,45.75
2023-04-08T11:09:27.723Z,45.66
2023-04-08T11:11:58.065Z,45.58
2023-04-08T11:14:41.424Z,45.85
2023-04-08T11:17:09.752Z,46.02
2023-04-08T11:19:37.888Z,46.14
2023-04-08T11:22:07.879Z,46.09
2023-04-08T11:24:37.847Z,44.86
2023-04-08T11:27:13.467Z,44.30
2023-04-08T11:29:42.169Z,43.71
2023-04-08T11:32:10.251Z,43.71
2023-04-08T11:34:40.668Z,44.04
2023-04-08T11:37:09.082Z,44.16
2023-04-08T11:39:44.052Z,44.04
2023-04-08T11:42:31.965Z,43.95
2023-04-08T11:45:00.044Z,43.65
2023-04-08T11:47:34.716Z,43.63
2023-04-08T11:50:03.052Z,43.65
2023-04-08T11:52:43.541Z,43.46
2023-04-08T11:55:27.974Z,42.91
2023-04-08T11:57:56.932Z,43.19
2023-04-08T12:00:25.144Z,43.25
2023-04-08T12:02:54.601Z,43.11
2023-04-08T12:05:23.404Z,43.00
2023-04-08T12:07:53.307Z,42.65
2023-04-08T12:10:21.743Z,42.60
2023-04-08T12:12:57.909Z,42.30
2023-04-08T12:15:27.414Z,42.11
2023-04-08T12:17:56.058Z,41.68
2023-04-08T12:20:30.604Z,41.57
2023-04-08T12:22:58.737Z,41.10
2023-04-08T12:25:27.965Z,40.31
2023-04-08T12:27:56.885Z,39.72
2023-04-08T12:30:25.163Z,39.86
2023-04-08T12:32:55.443Z,40.01
2023-04-08T12:35:24.042Z,40.15
2023-04-08T12:37:52.127Z,40.24
2023-04-08T12:40:20.873Z,40.30
2023-04-08T12:42:49.367Z,40.67
2023-04-08T12:45:18.738Z,40.73
2023-04-08T12:47:47.429Z,40.51
2023-04-08T12:50:16.689Z,40.47
2023-04-08T12:52:45.335Z,40.41
2023-04-08T12:55:13.503Z,40.06
2023-04-08T12:57:41.582Z,39.54
2023-04-08T13:00:11.328Z,39.49
2023-04-08T13:02:52.020Z,38.94
2023-04-08T13:05:29.516Z,38.94
2023-04-08T13:08:08.291Z,39.10
2023-04-08T13:10:38.630Z,39.43
2023-04-08T13:13:11.948Z,39.78
2023-04-08T13:15:40.428Z,38.33
2023-04-08T13:18:10.880Z,41.16
2023-04-08T13:20:41.889Z,41.76
2023-04-08T13:23:10.132Z,42.29
2023-04-08T13:25:38.243Z,41.62
2023-04-08T13:28:11.797Z,42.05
2023-04-08T13:30:41.500Z,42.63
2023-04-08T13:33:11.202Z,43.44
2023-04-08T13:35:39.922Z,43.84
2023-04-08T13:38:09.105Z,44.85
2023-04-08T13:40:40.539Z,46.82
2023-04-08T13:43:09.808Z,48.37
2023-04-08T13:45:39.659Z,49.45
2023-04-08T13:48:09.699Z,50.40
2023-04-08T13:50:40.567Z,51.41
2023-04-08T13:53:08.824Z,52.30
2023-04-08T13:55:39.797Z,53.09
2023-04-08T13:58:17.244Z,53.56
2023-04-08T14:00:57.361Z,53.81
2023-04-08T14:03:26.695Z,54.27
2023-04-08T14:05:54.915Z,54.52
2023-04-08T14:08:26.195Z,54.78
2023-04-08T14:10:59.481Z,54.81
2023-04-08T14:13:28.087Z,54.68
2023-04-08T14:16:02.687Z,54.44
2023-04-08T14:18:31.407Z,54.14
2023-04-08T14:20:59.749Z,54.16
2023-04-08T14:23:27.876Z,54.01
2023-04-08T14:25:56.097Z,53.93
2023-04-08T14:28:29.143Z,54.02
2023-04-08T14:30:57.504Z,53.93
2023-04-08T14:33:27.453Z,53.96
2023-04-08T14:35:55.743Z,53.85
2023-04-08T14:38:24.492Z,53.48
2023-04-08T14:40:52.869Z,53.23
2023-04-08T14:43:21.516Z,53.17
2023-04-08T14:45:52.843Z,53.35
2023-04-08T14:48:21.279Z,53.18
2023-04-08T14:50:49.408Z,52.76
2023-04-08T14:53:19.726Z,51.99
2023-04-08T14:55:47.832Z,51.46
2023-04-08T14:58:16.116Z,51.07
2023-04-08T15:00:46.157Z,50.86
2023-04-08T15:03:15.685Z,50.14
2023-04-08T15:05:58.914Z,49.74
2023-04-08T15:08:27.292Z,49.35
2023-04-08T15:10:55.881Z,48.94
2023-04-08T15:13:26.397Z,48.69
2023-04-08T15:15:54.645Z,48.94
2023-04-08T15:18:23.061Z,49.13
2023-04-08T15:20:56.672Z,49.28
2023-04-08T15:23:24.930Z,49.27
2023-04-08T15:25:53.101Z,49.85
2023-04-08T15:28:22.232Z,50.13
2023-04-08T15:30:51.105Z,50.62
2023-04-08T15:33:26.518Z,50.75
2023-04-08T15:35:54.986Z,50.77
2023-04-08T15:38:23.190Z,50.93
2023-04-08T15:40:51.342Z,51.18
2023-04-08T15:43:20.889Z,51.69
2023-04-08T15:45:49.089Z,52.12
2023-04-08T15:48:17.445Z,52.46
2023-04-08T15:50:46.186Z,53.09
2023-04-08T15:53:14.307Z,53.73
2023-04-08T15:55:42.450Z,54.06
2023-04-08T15:58:11.238Z,54.49
2023-04-08T16:00:39.691Z,54.89
2023-04-08T16:03:12.268Z,55.05
2023-04-08T16:05:42.076Z,55.27
2023-04-08T16:08:11.782Z,55.35
2023-04-08T16:10:39.853Z,55.39
2023-04-08T16:13:11.929Z,55.71
2023-04-08T16:15:44.134Z,56.02
2023-04-08T16:18:13.577Z,56.18
2023-04-08T16:20:46.012Z,56.14
2023-04-08T16:23:15.795Z,56.11
2023-04-08T16:25:45.554Z,56.04
2023-04-08T16:28:15.120Z,56.07
2023-04-08T16:30:44.401Z,56.16
2023-04-08T16:33:12.728Z,56.23
2023-04-08T16:35:41.554Z,56.39
2023-04-08T16:38:09.646Z,56.42
2023-04-08T16:40:39.285Z,56.45
2023-04-08T16:43:07.647Z,56.45
2023-04-08T16:45:38.013Z,56.42
2023-04-08T16:48:07.080Z,56.19
2023-04-08T16:50:39.562Z,56.08
2023-04-08T16:53:07.863Z,55.94
2023-04-08T16:55:39.251Z,55.71
2023-04-08T16:58:09.921Z,55.30
2023-04-08T17:00:38.924Z,55.17
2023-04-08T17:03:08.441Z,54.99
2023-04-08T17:05:37.340Z,54.91
2023-04-08T17:08:07.359Z,55.33
2023-04-08T17:10:37.290Z,56.01
2023-04-08T17:13:05.449Z,56.39
2023-04-08T17:15:38.262Z,56.48
2023-04-08T17:18:07.254Z,56.06
2023-04-08T17:20:36.270Z,55.82
2023-04-08T17:23:10.954Z,55.95
2023-04-08T17:25:39.636Z,56.27
2023-04-08T17:28:07.692Z,56.58
2023-04-08T17:30:39.948Z,56.92
2023-04-08T17:33:08.078Z,57.17
2023-04-08T17:35:36.224Z,57.34
2023-04-08T17:38:04.983Z,57.58
2023-04-08T17:40:33.869Z,57.72
2023-04-08T17:43:03.433Z,57.71
2023-04-08T17:45:32.048Z,57.76
2023-04-08T17:48:00.269Z,57.83
2023-04-08T17:50:29.629Z,57.85
2023-04-08T17:52:57.658Z,57.97
2023-04-08T17:55:30.048Z,58.03
2023-04-08T17:57:58.407Z,58.09
2023-04-08T18:00:27.716Z,58.08
2023-04-08T18:02:56.814Z,58.24
2023-04-08T18:05:25.480Z,58.20
2023-04-08T18:07:53.793Z,58.13
2023-04-08T18:10:24.385Z,58.08
2023-04-08T18:13:03.763Z,58.00
2023-04-08T18:15:36.288Z,58.01
2023-04-08T18:18:04.799Z,58.02
2023-04-08T18:20:37.040Z,58.23
2023-04-08T18:23:06.932Z,58.49
2023-04-08T18:25:37.074Z,58.65
2023-04-08T18:28:05.634Z,58.88
2023-04-08T18:30:34.176Z,59.00
2023-04-08T18:33:02.368Z,59.23
2023-04-08T18:35:31.112Z,59.30
2023-04-08T18:38:00.430Z,59.30
2023-04-08T18:40:29.789Z,59.27
2023-04-08T18:43:02.192Z,59.27
2023-04-08T18:45:30.877Z,59.32
2023-04-08T18:47:59.458Z,59.43
2023-04-08T18:50:27.637Z,59.47
2023-04-08T18:52:55.885Z,59.60
2023-04-08T18:55:24.493Z,59.67
2023-04-08T18:57:53.559Z,59.70
2023-04-08T19:00:21.786Z,59.80
2023-04-08T19:02:51.912Z,59.89
2023-04-08T19:05:20.370Z,59.94
2023-04-08T19:07:48.648Z,60.10
2023-04-08T19:10:22.095Z,60.23
2023-04-08T19:12:51.471Z,60.34
2023-04-08T19:15:19.735Z,60.50
2023-04-08T19:17:49.615Z,60.60
2023-04-08T19:20:17.834Z,60.80
2023-04-08T19:22:48.308Z,60.95
2023-04-08T19:25:17.486Z,61.04
2023-04-08T19:27:46.006Z,61.17
2023-04-08T19:30:14.240Z,61.23
2023-04-08T19:32:43.329Z,61.33
2023-04-08T19:35:12.538Z,61.32
2023-04-08T19:37:41.305Z,61.44
2023-04-08T19:40:10.302Z,61.56
2023-04-08T19:42:38.442Z,61.67
2023-04-08T19:45:08.184Z,61.82
2023-04-08T19:47:36.666Z,61.99
2023-04-08T19:50:05.779Z,62.09
2023-04-08T19:52:33.900Z,62.22
2023-04-08T19:55:02.617Z,62.19
2023-04-08T19:57:31.804Z,62.44
2023-04-08T19:59:59.768Z,62.73
2023-04-08T20:02:28.356Z,62.93
2023-04-08T20:04:57.865Z,62.95
2023-04-08T20:07:25.933Z,63.07
2023-04-08T20:09:54.487Z,63.52
2023-04-08T20:12:22.517Z,63.75
2023-04-08T20:14:51.966Z,63.88
2023-04-08T20:17:20.981Z,64.14
2023-04-08T20:19:51.413Z,64.26
2023-04-08T20:22:21.498Z,64.31
2023-04-08T20:24:50.145Z,64.23
2023-04-08T20:27:21.368Z,64.13
2023-04-08T20:29:50.195Z,64.14
2023-04-08T20:32:18.835Z,64.14
2023-04-08T20:34:48.325Z,64.12
2023-04-08T20:37:18.419Z,64.18
2023-04-08T20:39:47.318Z,64.10
2023-04-08T20:42:15.389Z,64.11
2023-04-08T20:44:43.436Z,64.23
2023-04-08T20:47:12.242Z,64.27
2023-04-08T20:49:42.250Z,64.41
2023-04-08T20:52:16.567Z,64.49
2023-04-08T20:54:45.497Z,64.63
2023-04-08T20:57:13.494Z,64.82
2023-04-08T20:59:41.665Z,64.93
2023-04-08T21:02:10.383Z,65.11
2023-04-08T21:04:38.534Z,65.24
2023-04-08T21:07:06.543Z,65.39
2023-04-08T21:09:35.945Z,65.43
2023-04-08T21:12:04.449Z,65.48
2023-04-08T21:14:32.584Z,65.49
2023-04-08T21:17:03.846Z,65.58
2023-04-08T21:19:32.013Z,65.71
2023-04-08T21:22:00.543Z,65.79
2023-04-08T21:24:29.940Z,65.82
2023-04-08T21:26:58.254Z,66.03
2023-04-08T21:29:26.546Z,66.18
2023-04-08T21:31:54.627Z,66.31
2023-04-08T21:34:23.045Z,66.44
2023-04-08T21:36:51.501Z,66.51
2023-04-08T21:39:19.518Z,66.56
2023-04-08T21:41:48.201Z,66.55
2023-04-08T21:44:16.416Z,66.66
2023-04-08T21:46:44.674Z,66.69
2023-04-08T21:49:13.934Z,66.82
2023-04-08T21:51:42.249Z,66.78
2023-04-08T21:54:10.974Z,66.69
2023-04-08T21:56:39.229Z,66.68
2023-04-08T21:59:07.370Z,66.59
2023-04-08T22:01:37.414Z,66.70
2023-04-08T22:04:06.604Z,66.78
2023-04-08T22:06:34.933Z,66.87
2023-04-08T22:09:03.652Z,66.83
2023-04-08T22:11:31.837Z,66.86
2023-04-08T22:14:00.164Z,66.85
2023-04-08T22:16:28.230Z,66.90
2023-04-08T22:18:56.460Z,66.89
2023-04-08T22:21:30.259Z,66.97
2023-04-08T22:23:58.920Z,67.11
2023-04-08T22:26:27.774Z,67.24
2023-04-08T22:29:00.406Z,67.35
2023-04-08T22:31:29.835Z,67.55
2023-04-08T22:33:59.284Z,67.61
2023-04-08T22:36:27.371Z,67.57
2023-04-08T22:38:55.966Z,67.65
2023-04-08T22:41:24.620Z,67.77
2023-04-08T22:43:53.797Z,67.87
2023-04-08T22:46:22.946Z,67.91
2023-04-08T22:48:51.548Z,68.02
2023-04-08T22:51:19.766Z,68.08
2023-04-08T22:53:48.618Z,68.21
2023-04-08T22:56:16.681Z,68.31
2023-04-08T22:58:45.576Z,68.28
2023-04-08T23:01:17.570Z,68.33
2023-04-08T23:03:46.934Z,68.44
2023-04-08T23:06:20.399Z,68.56
2023-04-08T23:08:51.702Z,68.53
2023-04-08T23:11:19.994Z,68.65
2023-04-08T23:13:56.308Z,68.75
2023-04-08T23:16:26.515Z,68.84
2023-04-08T23:18:54.737Z,68.91
2023-04-08T23:21:27.267Z,68.89
2023-04-08T23:23:55.406Z,68.98
2023-04-08T23:26:25.091Z,69.15
2023-04-08T23:28:55.628Z,69.39
2023-04-08T23:31:23.910Z,69.47
2023-04-08T23:33:52.838Z,69.53
2023-04-08T23:36:23.111Z,69.61
2023-04-08T23:38:51.785Z,69.61
2023-04-08T23:41:20.096Z,69.70
2023-04-08T23:43:55.151Z,69.78
2023-04-08T23:46:23.572Z,69.88
2023-04-08T23:48:57.809Z,69.86
2023-04-08T23:51:27.840Z,69.93
2023-04-08T23:53:56.632Z,69.97
2023-04-08T23:56:25.120Z,70.06
2023-04-08T23:58:53.828Z,70.10
